Time;durP1;ratioP1;P1;durP2;ratioP2;P2;SDS_P1;SDS_P2;PMS_P1;PMS_P2;Temp;Humidity;BMP_temperature;BMP_pressure;BME280_temperature;BME280_humidity;BME280_pressure;Samples;Min_cycle;Max_cycle;Signal;HPM_P1;HPM_P2
2021/08/01 00:01:56;;;;;;;3.15;2.38;;;23.80;99.90;;;;;;5006188;28;20060;-62
2021/08/01 00:04:22;;;;;;;3.00;2.80;;;23.80;99.90;;;;;;5025957;28;20044;-63
2021/08/01 00:06:47;;;;;;;3.05;2.40;;;23.90;99.90;;;;;;5028208;28;20042;-63
2021/08/01 00:09:13;;;;;;;3.28;2.90;;;23.90;99.90;;;;;;5021428;28;20489;-64
2021/08/01 00:11:38;;;;;;;3.70;2.90;;;24.00;99.90;;;;;;5017084;28;20037;-63
2021/08/01 00:14:04;;;;;;;3.10;2.50;;;24.00;99.90;;;;;;5027388;28;20055;-63
2021/08/01 00:16:30;;;;;;;3.13;2.53;;;24.10;99.90;;;;;;5005757;28;20054;-63
2021/08/01 00:18:57;;;;;;;4.15;2.55;;;24.10;99.90;;;;;;5018005;28;20037;-63
2021/08/01 00:21:22;;;;;;;4.18;2.50;;;24.20;99.90;;;;;;5027664;28;20052;-63
2021/08/01 00:23:48;;;;;;;3.72;2.78;;;24.20;99.90;;;;;;5021090;28;20038;-64
2021/08/01 00:26:13;;;;;;;4.28;2.70;;;24.10;99.90;;;;;;5018028;28;20052;-64
2021/08/01 00:28:39;;;;;;;2.80;2.60;;;24.20;99.90;;;;;;5019866;28;20053;-63
2021/08/01 00:31:04;;;;;;;3.17;2.30;;;24.10;99.90;;;;;;5032858;28;20045;-63
2021/08/01 00:33:30;;;;;;;2.50;2.30;;;24.10;99.90;;;;;;5009926;28;20045;-63
2021/08/01 00:35:56;;;;;;;3.50;2.60;;;24.10;99.90;;;;;;5018874;28;20033;-64
2021/08/01 00:38:21;;;;;;;2.42;2.22;;;24.20;99.90;;;;;;5011833;28;20030;-64
2021/08/01 00:40:47;;;;;;;3.92;2.50;;;24.10;99.90;;;;;;5023977;28;20045;-64
2021/08/01 00:43:12;;;;;;;4.13;3.00;;;24.20;99.90;;;;;;5016016;28;20038;-63
2021/08/01 00:45:39;;;;;;;3.67;2.83;;;24.10;99.90;;;;;;5013658;28;20114;-63
2021/08/01 00:48:08;;;;;;;3.78;2.47;;;24.20;99.90;;;;;;5006223;28;20040;-63
2021/08/01 00:50:34;;;;;;;4.53;2.75;;;24.20;99.90;;;;;;5004413;28;20041;-64
2021/08/01 00:53:01;;;;;;;2.88;2.58;;;24.20;99.90;;;;;;5008345;28;20068;-63
2021/08/01 00:55:26;;;;;;;5.47;3.00;;;24.10;99.90;;;;;;5007469;28;20042;-60
2021/08/01 00:57:52;;;;;;;6.07;3.28;;;24.10;99.90;;;;;;5006757;28;20041;-64
2021/08/01 01:00:34;;;;;;;5.03;2.63;;;24.20;99.90;;;;;;5004559;28;20531;-64
2021/08/01 01:03:10;;;;;;;2.85;2.40;;;24.20;99.90;;;;;;5003797;28;20045;-63
2021/08/01 01:06:01;;;;;;;4.68;2.83;;;24.10;99.90;;;;;;5015576;28;20038;-63
2021/08/01 01:08:46;;;;;;;2.67;2.40;;;24.10;99.90;;;;;;5028388;28;20120;-62
2021/08/01 01:11:13;;;;;;;4.78;2.70;;;24.00;99.90;;;;;;4996646;28;20224;-64
2021/08/01 01:13:48;;;;;;;3.13;2.75;;;24.00;99.90;;;;;;5019196;28;20044;-63
2021/08/01 01:16:14;;;;;;;4.80;3.00;;;24.00;99.90;;;;;;5018411;28;20052;-64
2021/08/01 01:18:46;;;;;;;3.13;2.88;;;24.10;99.90;;;;;;5024215;28;20042;-63
2021/08/01 01:21:49;;;;;;;3.75;2.67;;;24.00;99.90;;;;;;5005498;28;20081;-64
2021/08/01 01:24:18;;;;;;;3.63;2.95;;;24.00;99.90;;;;;;4998355;28;20120;-63
2021/08/01 01:27:00;;;;;;;3.13;2.83;;;23.90;99.90;;;;;;5018407;28;20030;-63
2021/08/01 01:29:49;;;;;;;3.90;2.83;;;23.90;99.90;;;;;;5007023;28;20377;-64
2021/08/01 01:32:18;;;;;;;2.97;2.78;;;23.90;99.90;;;;;;4975012;28;20484;-64
2021/08/01 01:35:00;;;;;;;3.65;2.58;;;24.00;99.90;;;;;;5007744;28;20112;-64
2021/08/01 01:37:28;;;;;;;5.28;3.25;;;24.00;99.90;;;;;;5014791;28;20038;-64
2021/08/01 01:39:56;;;;;;;2.92;2.72;;;24.00;99.90;;;;;;5006264;28;20045;-63
2021/08/01 01:42:23;;;;;;;6.13;3.10;;;24.10;99.90;;;;;;5019473;28;20054;-64
2021/08/01 01:44:49;;;;;;;3.22;2.70;;;24.10;99.90;;;;;;5007922;28;20034;-64
2021/08/01 01:48:04;;;;;;;3.72;2.70;;;24.00;99.90;;;;;;5007913;28;20073;-63
2021/08/01 01:50:30;;;;;;;3.55;2.65;;;23.80;99.90;;;;;;4914783;28;20049;-63
2021/08/01 01:53:08;;;;;;;3.30;2.97;;;23.70;99.90;;;;;;5012430;28;20034;-64
2021/08/01 01:55:35;;;;;;;3.38;3.08;;;23.80;99.90;;;;;;4982993;28;20045;-63
2021/08/01 01:58:01;;;;;;;3.15;2.58;;;23.70;99.90;;;;;;5002685;28;20037;-63
2021/08/01 02:01:01;;;;;;;3.08;2.75;;;23.70;99.90;;;;;;5026508;28;20049;-63
2021/08/01 02:03:27;;;;;;;3.40;3.10;;;23.70;99.90;;;;;;4999806;28;20053;-60
2021/08/01 02:05:54;;;;;;;2.92;2.63;;;23.50;99.90;;;;;;5004606;28;20038;-63
2021/08/01 02:08:19;;;;;;;3.08;2.88;;;23.50;99.90;;;;;;5010477;28;20037;-64
2021/08/01 02:10:59;;;;;;;4.63;3.00;;;23.60;99.90;;;;;;5027027;28;20056;-63
2021/08/01 02:13:35;;;;;;;3.25;2.95;;;23.50;99.90;;;;;;5017814;28;20045;-63
2021/08/01 02:16:02;;;;;;;4.13;3.25;;;23.50;99.90;;;;;;5018572;28;20044;-63
2021/08/01 02:18:38;;;;;;;4.88;2.80;;;23.50;99.90;;;;;;5018415;28;20088;-62
2021/08/01 02:21:04;;;;;;;3.47;3.17;;;23.60;99.90;;;;;;5025629;28;20135;-63
2021/08/01 02:23:40;;;;;;;5.18;2.58;;;23.50;99.90;;;;;;5024055;28;20064;-63
2021/08/01 02:26:07;;;;;;;3.88;2.95;;;23.60;99.90;;;;;;5025508;28;20033;-63
2021/08/01 02:28:34;;;;;;;3.40;3.10;;;23.50;99.90;;;;;;5023776;28;20132;-63
2021/08/01 02:31:01;;;;;;;3.30;2.80;;;23.60;99.90;;;;;;5011267;28;20038;-63
2021/08/01 02:33:28;;;;;;;4.03;3.53;;;23.50;99.90;;;;;;5008632;28;20482;-61
2021/08/01 02:36:02;;;;;;;3.00;2.65;;;23.40;99.90;;;;;;5013345;28;20411;-64
2021/08/01 02:38:28;;;;;;;;;;;23.30;99.90;;;;;;5022573;28;20041;-64
2021/08/01 02:40:59;;;;;;;4.25;3.30;;;23.40;99.90;;;;;;5013007;28;19921;-65
2021/08/01 02:43:28;;;;;;;3.15;2.75;;;23.30;99.90;;;;;;5014013;28;20030;-63
2021/08/01 02:45:54;;;;;;;3.83;3.13;;;23.30;99.90;;;;;;5004365;28;20103;-63
2021/08/01 02:48:25;;;;;;;3.40;3.10;;;23.40;99.90;;;;;;5026447;28;20030;-63
2021/08/01 02:51:02;;;;;;;3.88;2.70;;;23.50;99.90;;;;;;5010553;28;20037;-63
2021/08/01 02:53:30;;;;;;;4.43;3.15;;;23.40;99.90;;;;;;5018583;28;20037;-60
2021/08/01 02:55:59;;;;;;;3.22;2.92;;;23.30;99.90;;;;;;5019715;28;20045;-64
2021/08/01 02:58:27;;;;;;;3.28;2.97;;;23.40;99.90;;;;;;5021951;28;20037;-63
2021/08/01 03:00:53;;;;;;;3.85;2.55;;;23.40;99.90;;;;;;4997833;28;20042;-63
2021/08/01 03:03:21;;;;;;;4.68;3.40;;;23.50;99.90;;;;;;5007743;28;20092;-63
2021/08/01 03:05:47;;;;;;;2.88;2.63;;;23.60;99.90;;;;;;5002385;28;20034;-63
2021/08/01 03:08:14;;;;;;;5.82;3.20;;;23.60;99.90;;;;;;5009353;28;20037;-63
2021/08/01 03:10:46;;;;;;;3.65;3.17;;;23.70;99.90;;;;;;5024995;28;20045;-63
2021/08/01 03:13:12;;;;;;;3.15;2.80;;;23.70;99.90;;;;;;5024934;28;20037;-63
2021/08/01 03:15:38;;;;;;;3.58;2.85;;;23.70;99.90;;;;;;5022283;28;20033;-63
2021/08/01 03:18:04;;;;;;;5.35;3.00;;;23.80;99.90;;;;;;5026156;28;20037;-63
2021/08/01 03:20:30;;;;;;;3.42;3.13;;;23.80;99.90;;;;;;5022331;28;20404;-63
2021/08/01 03:22:56;;;;;;;4.10;2.95;;;23.80;99.90;;;;;;5024344;28;20164;-63
2021/08/01 03:25:21;;;;;;;3.55;3.13;;;23.70;99.90;;;;;;5020029;28;20052;-64
2021/08/01 03:27:47;;;;;;;4.68;3.60;;;23.80;99.90;;;;;;5024004;28;20049;-63
2021/08/01 03:30:12;;;;;;;3.25;2.95;;;23.80;99.90;;;;;;5009417;28;20047;-63
2021/08/01 03:32:38;;;;;;;3.47;3.15;;;23.80;99.90;;;;;;5006149;28;20037;-63
2021/08/01 03:35:04;;;;;;;3.45;2.90;;;23.80;99.90;;;;;;5015232;28;20033;-63
2021/08/01 03:37:30;;;;;;;4.07;3.05;;;23.80;99.90;;;;;;5021589;28;20332;-63
2021/08/01 03:39:56;;;;;;;3.78;3.30;;;23.80;99.90;;;;;;5029311;28;20080;-64
2021/08/01 03:42:22;;;;;;;4.32;3.30;;;23.80;99.90;;;;;;5010602;28;20037;-63
2021/08/01 03:44:50;;;;;;;2.92;2.70;;;23.70;99.90;;;;;;5024000;28;20038;-63
2021/08/01 03:47:16;;;;;;;4.28;3.40;;;23.80;99.90;;;;;;5022241;28;20033;-63
2021/08/01 03:49:45;;;;;;;3.70;3.03;;;23.80;99.90;;;;;;5026388;28;20402;-63
2021/08/01 03:52:11;;;;;;;3.67;3.10;;;23.90;99.90;;;;;;5011292;28;20038;-63
2021/08/01 03:54:37;;;;;;;3.63;3.00;;;23.90;99.90;;;;;;5009901;28;20077;-63
2021/08/01 03:57:03;;;;;;;3.65;3.35;;;23.90;99.90;;;;;;5007962;28;20080;-63
2021/08/01 03:59:35;;;;;;;4.07;3.03;;;23.90;99.90;;;;;;5019676;28;20092;-62
2021/08/01 04:02:01;;;;;;;4.07;2.80;;;24.00;99.90;;;;;;5006640;28;23245;-63
2021/08/01 04:04:27;;;;;;;4.10;3.20;;;23.90;99.90;;;;;;5010838;28;20083;-63
2021/08/01 04:06:52;;;;;;;3.42;2.90;;;24.00;99.90;;;;;;5009679;28;20491;-63
2021/08/01 04:09:18;;;;;;;4.22;3.33;;;24.00;99.90;;;;;;5026413;28;20053;-63
2021/08/01 04:11:44;;;;;;;4.47;3.25;;;24.00;99.90;;;;;;5029446;28;20034;-64
2021/08/01 04:14:10;;;;;;;5.20;3.08;;;23.80;99.90;;;;;;5025426;28;20041;-63
2021/08/01 04:16:37;;;;;;;3.63;2.85;;;23.90;99.90;;;;;;5011809;28;20083;-63
2021/08/01 04:19:10;;;;;;;3.05;2.58;;;23.50;99.90;;;;;;5027354;28;20120;-63
2021/08/01 04:21:38;;;;;;;4.75;2.92;;;23.40;99.90;;;;;;5018483;28;20501;-63
2021/08/01 04:24:04;;;;;;;3.75;3.40;;;23.40;99.90;;;;;;5021998;28;20484;-63
2021/08/01 04:26:30;;;;;;;3.75;3.40;;;23.40;99.90;;;;;;5012259;28;20052;-63
2021/08/01 04:29:20;;;;;;;4.25;3.20;;;23.40;99.90;;;;;;5021331;28;20033;-63
2021/08/01 04:31:46;;;;;;;4.32;3.80;;;23.30;99.90;;;;;;4963507;28;20563;-63
2021/08/01 04:34:11;;;;;;;4.53;3.83;;;23.30;99.90;;;;;;5004183;28;20116;-64
2021/08/01 04:36:37;;;;;;;3.72;3.25;;;23.40;99.90;;;;;;5023718;28;20045;-63
2021/08/01 04:39:03;;;;;;;5.25;3.65;;;23.40;99.90;;;;;;5023557;28;20041;-63
2021/08/01 04:41:29;;;;;;;4.88;3.22;;;23.40;99.90;;;;;;5026985;28;20041;-63
2021/08/01 04:43:54;;;;;;;3.80;3.45;;;23.40;99.90;;;;;;5020854;28;20036;-63
2021/08/01 04:46:20;;;;;;;4.18;3.75;;;23.40;99.90;;;;;;5006810;28;20540;-64
2021/08/01 04:48:45;;;;;;;4.00;3.60;;;23.30;99.90;;;;;;4988938;28;20038;-64
2021/08/01 04:51:11;;;;;;;3.70;3.35;;;23.30;99.90;;;;;;5010896;28;20041;-64
2021/08/01 04:53:37;;;;;;;6.25;3.30;;;23.30;99.90;;;;;;5007272;28;20064;-64
2021/08/01 04:56:06;;;;;;;5.85;3.50;;;23.30;99.90;;;;;;5009861;28;20092;-64
2021/08/01 04:58:32;;;;;;;5.68;3.50;;;23.30;99.90;;;;;;5009776;28;20037;-63
2021/08/01 05:00:58;;;;;;;4.43;3.50;;;23.30;99.90;;;;;;5021450;28;20094;-64
2021/08/01 05:03:24;;;;;;;5.63;3.45;;;23.20;99.90;;;;;;5007281;28;20038;-64
2021/08/01 05:05:50;;;;;;;5.35;3.80;;;23.20;99.90;;;;;;5010310;28;20041;-64
2021/08/01 05:08:16;;;;;;;3.45;3.15;;;23.20;99.90;;;;;;5011102;28;20104;-64
2021/08/01 05:10:41;;;;;;;3.95;2.80;;;23.00;99.90;;;;;;5019268;28;20042;-64
2021/08/01 05:13:07;;;;;;;6.53;3.72;;;23.10;99.90;;;;;;5027164;28;20034;-64
2021/08/01 05:15:33;;;;;;;4.40;3.22;;;23.10;99.90;;;;;;5007757;28;20034;-64
2021/08/01 05:17:59;;;;;;;3.88;3.13;;;23.20;99.90;;;;;;5006509;28;20048;-63
2021/08/01 05:20:24;;;;;;;4.90;3.40;;;23.20;99.90;;;;;;5015295;28;20057;-64
2021/08/01 05:22:50;;;;;;;7.43;3.08;;;23.30;99.90;;;;;;5026600;28;20143;-65
2021/08/01 05:25:16;;;;;;;4.47;3.35;;;23.20;99.90;;;;;;5024385;28;20574;-64
2021/08/01 05:27:41;;;;;;;3.47;3.10;;;23.30;99.90;;;;;;5024529;28;20040;-64
2021/08/01 05:30:07;;;;;;;4.35;3.20;;;23.40;99.90;;;;;;5024211;28;20407;-65
2021/08/01 05:32:33;;;;;;;5.30;3.08;;;23.50;99.90;;;;;;5025069;28;20029;-64
2021/08/01 05:35:00;;;;;;;5.63;3.42;;;23.50;99.90;;;;;;5020600;28;20040;-63
2021/08/01 05:37:26;;;;;;;3.33;3.03;;;23.60;99.90;;;;;;5006494;28;20521;-64
2021/08/01 05:39:51;;;;;;;4.10;3.42;;;23.50;99.90;;;;;;5012624;28;20070;-64
2021/08/01 05:42:18;;;;;;;4.20;3.45;;;23.60;99.90;;;;;;5013883;28;20967;-64
2021/08/01 05:44:44;;;;;;;4.18;3.78;;;23.70;99.90;;;;;;5008915;28;20073;-64
2021/08/01 05:47:43;;;;;;;3.97;3.67;;;23.70;99.90;;;;;;5024495;28;20459;-64
2021/08/01 05:50:09;;;;;;;4.20;3.45;;;23.70;99.90;;;;;;4985320;28;20037;-64
2021/08/01 05:52:36;;;;;;;4.28;3.35;;;23.60;99.90;;;;;;5009835;28;20048;-64
2021/08/01 05:55:02;;;;;;;3.95;3.55;;;23.70;99.90;;;;;;5013462;28;20040;-63
2021/08/01 05:57:27;;;;;;;3.60;3.30;;;23.80;99.90;;;;;;5012031;28;20037;-64
2021/08/01 05:59:53;;;;;;;3.38;3.08;;;24.00;99.90;;;;;;5004119;28;20033;-64
2021/08/01 06:02:18;;;;;;;3.78;3.47;;;24.10;99.90;;;;;;4995892;28;20046;-64
2021/08/01 06:04:44;;;;;;;5.47;3.33;;;24.10;99.90;;;;;;5016222;28;20052;-64
2021/08/01 06:07:10;;;;;;;3.88;3.10;;;24.10;99.90;;;;;;5024784;28;20050;-64
2021/08/01 06:09:39;;;;;;;3.58;3.28;;;24.20;99.90;;;;;;5026804;28;20037;-64
2021/08/01 06:12:05;;;;;;;4.03;3.60;;;24.20;99.90;;;;;;5023084;28;20069;-63
2021/08/01 06:14:31;;;;;;;3.42;3.13;;;24.10;99.90;;;;;;5006589;28;20053;-64
2021/08/01 06:16:57;;;;;;;3.70;3.35;;;24.20;99.90;;;;;;5005437;28;20034;-64
2021/08/01 06:19:22;;;;;;;5.47;3.33;;;24.00;99.90;;;;;;5011538;28;20034;-64
2021/08/01 06:21:48;;;;;;;3.70;3.30;;;24.10;99.90;;;;;;5014385;28;20073;-64
2021/08/01 06:24:13;;;;;;;4.68;4.13;;;24.10;99.90;;;;;;5015875;28;20071;-64
2021/08/01 06:26:40;;;;;;;3.78;3.20;;;24.20;99.90;;;;;;5020478;28;20034;-64
2021/08/01 06:29:05;;;;;;;4.68;3.38;;;24.30;99.90;;;;;;5006414;28;20069;-64
2021/08/01 06:31:31;;;;;;;3.65;3.17;;;24.30;99.90;;;;;;5011221;28;20072;-63
2021/08/01 06:33:58;;;;;;;3.63;3.33;;;24.40;99.90;;;;;;5023446;28;20033;-64
2021/08/01 06:36:24;;;;;;;3.65;3.35;;;24.30;99.90;;;;;;5023287;28;20041;-64
2021/08/01 06:38:49;;;;;;;3.55;3.22;;;24.50;99.90;;;;;;5015195;28;20040;-64
2021/08/01 06:41:15;;;;;;;4.53;3.28;;;24.70;99.90;;;;;;5001098;28;20560;-64
2021/08/01 06:43:40;;;;;;;3.35;3.15;;;24.60;99.90;;;;;;4997306;28;20038;-64
2021/08/01 06:46:07;;;;;;;5.07;3.50;;;24.80;99.90;;;;;;5029698;28;20038;-64
2021/08/01 06:48:32;;;;;;;4.38;2.85;;;24.60;99.90;;;;;;5018065;28;20470;-64
2021/08/01 06:50:58;;;;;;;4.50;3.42;;;24.70;99.90;;;;;;5023299;28;20041;-64
2021/08/01 06:53:24;;;;;;;4.05;3.22;;;24.80;99.90;;;;;;5023607;28;20083;-65
2021/08/01 06:55:49;;;;;;;5.18;3.50;;;24.80;99.90;;;;;;5009477;28;20045;-64
2021/08/01 06:58:19;;;;;;;3.38;3.08;;;24.80;99.90;;;;;;5017436;28;20033;-64
2021/08/01 07:00:49;;;;;;;3.22;2.90;;;24.90;99.90;;;;;;5019329;28;20179;-64
2021/08/01 07:03:15;;;;;;;3.33;2.83;;;24.80;99.90;;;;;;5025407;28;20038;-64
2021/08/01 07:05:42;;;;;;;4.13;2.30;;;24.70;99.90;;;;;;5005818;28;20139;-64
2021/08/01 07:08:07;;;;;;;3.38;3.08;;;24.70;99.90;;;;;;5003230;28;20061;-64
2021/08/01 07:10:33;;;;;;;2.80;2.60;;;24.60;99.90;;;;;;5009598;28;20514;-64
2021/08/01 07:13:03;;;;;;;4.03;2.55;;;24.70;99.90;;;;;;5018841;28;20419;-64
2021/08/01 07:15:29;;;;;;;4.13;3.63;;;24.70;99.90;;;;;;5002672;28;20037;-64
2021/08/01 07:17:56;;;;;;;3.20;3.00;;;24.70;99.90;;;;;;5011317;28;20072;-64
2021/08/01 07:21:04;;;;;;;4.05;3.13;;;24.70;99.90;;;;;;5010415;28;20049;-64
2021/08/01 07:23:30;;;;;;;3.67;3.05;;;24.70;99.90;;;;;;4971853;28;20042;-62
2021/08/01 07:25:56;;;;;;;4.05;3.15;;;24.80;99.90;;;;;;4996728;28;20576;-64
2021/08/01 07:28:27;;;;;;;3.63;3.30;;;25.00;99.90;;;;;;5016147;28;20042;-64
2021/08/01 07:30:52;;;;;;;2.70;2.50;;;25.00;99.90;;;;;;5017585;28;20122;-64
2021/08/01 07:33:20;;;;;;;3.38;3.05;;;25.00;99.90;;;;;;5021327;28;20124;-64
2021/08/01 07:35:45;;;;;;;3.78;3.08;;;25.00;99.90;;;;;;5020780;28;20041;-64
2021/08/01 07:38:12;;;;;;;4.28;3.47;;;25.20;99.90;;;;;;5010080;28;20037;-64
2021/08/01 07:40:37;;;;;;;3.17;2.88;;;25.10;99.90;;;;;;5010746;28;20369;-64
2021/08/01 07:43:03;;;;;;;3.22;3.03;;;25.00;99.90;;;;;;5007580;28;20041;-64
2021/08/01 07:45:33;;;;;;;3.10;2.80;;;25.10;99.90;;;;;;5023655;28;20117;-64
2021/08/01 07:48:00;;;;;;;3.40;3.10;;;25.10;99.90;;;;;;5013450;28;20042;-64
2021/08/01 07:50:26;;;;;;;3.25;2.90;;;25.20;99.90;;;;;;5013176;28;20044;-65
2021/08/01 07:52:51;;;;;;;2.92;2.63;;;25.20;99.90;;;;;;5002584;28;20072;-64
2021/08/01 07:55:17;;;;;;;5.50;3.33;;;25.20;99.90;;;;;;5013157;28;20057;-64
2021/08/01 07:57:44;;;;;;;4.07;2.97;;;25.40;99.90;;;;;;5008423;28;20061;-64
2021/08/01 08:00:11;;;;;;;3.92;2.92;;;25.50;99.90;;;;;;5013543;28;20037;-64
2021/08/01 08:02:37;;;;;;;4.20;3.20;;;25.60;99.90;;;;;;4998032;28;20052;-64
2021/08/01 08:05:03;;;;;;;5.50;3.08;;;25.50;99.90;;;;;;5016546;28;20038;-63
2021/08/01 08:07:29;;;;;;;3.70;3.40;;;25.40;99.90;;;;;;5009720;28;20499;-64
2021/08/01 08:09:55;;;;;;;3.33;3.03;;;25.40;99.90;;;;;;5009663;28;20084;-62
2021/08/01 08:12:20;;;;;;;3.47;2.90;;;25.30;99.90;;;;;;5002770;28;20070;-63
2021/08/01 08:14:46;;;;;;;3.60;3.28;;;25.30;99.90;;;;;;5008583;28;20038;-63
2021/08/01 08:17:12;;;;;;;4.32;3.15;;;25.30;99.90;;;;;;5024780;28;20037;-63
2021/08/01 08:19:38;;;;;;;3.25;2.95;;;25.40;99.90;;;;;;5024571;28;20037;-62
2021/08/01 08:22:05;;;;;;;3.67;2.95;;;25.40;99.90;;;;;;5017514;28;20033;-63
2021/08/01 08:24:30;;;;;;;3.28;2.97;;;25.40;99.90;;;;;;5020642;28;20034;-59
2021/08/01 08:26:57;;;;;;;3.20;3.00;;;25.50;99.90;;;;;;5005515;28;20037;-63
2021/08/01 08:29:23;;;;;;;3.40;2.72;;;25.60;99.90;;;;;;5010917;28;20046;-64
2021/08/01 08:31:55;;;;;;;4.63;3.47;;;25.70;99.90;;;;;;5014702;28;20045;-63
2021/08/01 08:34:22;;;;;;;4.28;3.85;;;25.60;99.90;;;;;;4995243;28;20495;-63
2021/08/01 08:37:00;;;;;;;3.50;3.20;;;25.60;99.90;;;;;;5014343;28;20069;-63
2021/08/01 08:39:28;;;;;;;3.95;3.42;;;25.60;99.90;;;;;;5007768;28;20053;-63
2021/08/01 08:41:57;;;;;;;3.63;3.30;;;25.70;99.90;;;;;;5006853;28;20045;-64
2021/08/01 08:44:23;;;;;;;3.38;3.08;;;25.70;99.90;;;;;;5026475;28;20063;-63
2021/08/01 08:46:50;;;;;;;4.40;3.78;;;25.80;99.90;;;;;;5029140;28;20112;-63
2021/08/01 08:49:15;;;;;;;4.22;3.75;;;25.80;99.90;;;;;;5021247;28;20046;-63
2021/08/01 08:51:44;;;;;;;3.72;3.42;;;25.90;99.90;;;;;;5010097;28;20095;-63
2021/08/01 08:54:14;;;;;;;4.43;3.78;;;26.00;99.90;;;;;;5024713;28;20037;-63
2021/08/01 08:56:40;;;;;;;3.47;3.22;;;26.10;99.90;;;;;;5029039;28;20700;-63
2021/08/01 08:59:09;;;;;;;3.60;3.30;;;26.10;99.90;;;;;;5025205;28;20049;-63
2021/08/01 09:01:38;;;;;;;3.65;3.35;;;25.70;99.90;;;;;;5025607;28;20060;-63
2021/08/01 09:04:05;;;;;;;4.35;3.95;;;25.70;99.90;;;;;;5026711;28;20052;-63
2021/08/01 09:06:31;;;;;;;4.43;3.88;;;25.50;99.90;;;;;;5025631;28;20037;-64
2021/08/01 09:08:57;;;;;;;4.28;3.88;;;25.50;99.90;;;;;;5020744;28;22935;-64
2021/08/01 09:11:23;;;;;;;4.45;4.07;;;25.40;99.90;;;;;;5027439;28;20137;-64
2021/08/01 09:13:50;;;;;;;5.28;4.13;;;25.70;99.90;;;;;;5027519;28;20049;-63
2021/08/01 09:16:20;;;;;;;4.75;3.95;;;25.80;99.90;;;;;;5020098;28;20037;-64
2021/08/01 09:18:47;;;;;;;4.43;4.07;;;25.80;99.90;;;;;;5024958;28;20501;-64
2021/08/01 09:21:32;;;;;;;5.47;3.60;;;26.10;99.90;;;;;;5023040;28;20053;-63
2021/08/01 09:23:59;;;;;;;4.57;4.28;;;26.30;99.90;;;;;;5015609;28;20072;-63
2021/08/01 09:26:40;;;;;;;4.18;3.83;;;26.10;99.90;;;;;;5002083;28;20496;-63
2021/08/01 09:29:05;;;;;;;5.75;4.35;;;26.40;99.90;;;;;;5012627;28;20034;-63
2021/08/01 09:31:31;;;;;;;4.43;4.13;;;26.60;99.40;;;;;;5001568;28;20053;-63
2021/08/01 09:34:25;;;;;;;4.55;4.15;;;26.60;99.40;;;;;;5023496;28;20528;-63
2021/08/01 09:37:03;;;;;;;4.25;3.85;;;26.60;98.40;;;;;;4979773;28;20061;-63
2021/08/01 09:39:29;;;;;;;4.45;4.03;;;26.80;98.90;;;;;;5023603;28;20037;-63
2021/08/01 09:42:04;;;;;;;5.43;4.03;;;27.10;97.60;;;;;;5007762;28;20080;-63
2021/08/01 09:44:30;;;;;;;4.93;3.42;;;27.10;97.50;;;;;;5004168;28;20111;-63
2021/08/01 09:46:56;;;;;;;7.00;4.28;;;27.20;97.20;;;;;;4997858;28;20038;-63
2021/08/01 09:49:28;;;;;;;4.60;4.20;;;27.20;96.50;;;;;;5007465;28;20057;-63
2021/08/01 09:52:01;;;;;;;4.55;4.20;;;27.30;97.40;;;;;;5004765;28;20038;-63
2021/08/01 09:54:43;;;;;;;6.13;5.53;;;27.30;95.90;;;;;;5018067;28;20033;-63
2021/08/01 09:57:09;;;;;;;5.15;4.25;;;27.30;96.50;;;;;;4990357;28;20042;-63
2021/08/01 09:59:35;;;;;;;5.93;3.83;;;27.30;96.00;;;;;;5015131;28;20030;-63
2021/08/01 10:02:03;;;;;;;5.25;4.63;;;27.40;96.50;;;;;;5007637;28;20511;-63
2021/08/01 10:04:37;;;;;;;5.60;4.38;;;27.20;96.10;;;;;;5018364;28;20061;-63
2021/08/01 10:07:14;;;;;;;4.85;4.45;;;27.20;96.20;;;;;;4997349;28;20125;-63
2021/08/01 10:09:41;;;;;;;5.60;4.88;;;27.10;95.60;;;;;;5016004;28;20041;-63
2021/08/01 10:12:08;;;;;;;4.82;4.43;;;27.30;95.30;;;;;;5024380;28;20056;-63
2021/08/01 10:14:35;;;;;;;6.88;4.32;;;27.30;94.60;;;;;;5007286;28;20060;-63
2021/08/01 10:17:01;;;;;;;6.63;5.15;;;27.60;94.80;;;;;;5013458;28;20076;-63
2021/08/01 10:19:27;;;;;;;5.30;4.85;;;27.60;94.50;;;;;;5007258;28;20040;-64
2021/08/01 10:21:57;;;;;;;5.70;5.07;;;27.80;94.20;;;;;;5018339;28;20590;-64
2021/08/01 10:24:37;;;;;;;5.20;4.70;;;27.80;93.50;;;;;;5010991;28;20428;-64
2021/08/01 10:27:05;;;;;;;7.60;5.20;;;28.10;92.30;;;;;;5011075;28;20049;-65
2021/08/01 10:29:40;;;;;;;5.55;4.97;;;28.40;91.80;;;;;;5021485;28;20065;-64
2021/08/01 10:32:09;;;;;;;5.53;5.13;;;27.80;91.60;;;;;;5018939;28;20051;-63
2021/08/01 10:34:37;;;;;;;6.60;4.95;;;28.00;92.40;;;;;;5006775;28;20039;-63
2021/08/01 10:37:14;;;;;;;4.70;4.30;;;28.30;91.70;;;;;;5011097;28;20042;-63
2021/08/01 10:39:46;;;;;;;4.95;4.55;;;28.50;90.60;;;;;;5015577;28;20068;-64
2021/08/01 10:42:14;;;;;;;5.20;4.60;;;28.40;91.00;;;;;;5019707;28;20038;-63
2021/08/01 10:44:40;;;;;;;4.95;4.55;;;28.50;91.00;;;;;;4983972;28;20414;-63
2021/08/01 10:47:09;;;;;;;4.60;4.20;;;28.70;90.80;;;;;;5025603;28;20051;-63
2021/08/01 10:49:49;;;;;;;4.80;4.38;;;28.70;90.30;;;;;;5016183;28;20052;-64
2021/08/01 10:52:17;;;;;;;5.10;4.57;;;28.80;90.70;;;;;;5010915;28;20511;-63
2021/08/01 10:54:59;;;;;;;4.88;4.43;;;29.00;90.30;;;;;;5012879;28;20486;-64
2021/08/01 10:57:25;;;;;;;5.22;4.63;;;28.90;91.30;;;;;;5021028;28;20029;-64
2021/08/01 10:59:53;;;;;;;5.57;5.07;;;29.00;90.80;;;;;;5005312;28;20045;-63
2021/08/01 11:02:21;;;;;;;4.50;3.90;;;29.10;90.50;;;;;;5024308;28;20128;-63
2021/08/01 11:04:48;;;;;;;5.13;4.72;;;29.20;90.30;;;;;;5002459;28;20091;-63
2021/08/01 11:07:25;;;;;;;6.03;5.00;;;29.30;90.50;;;;;;5022189;28;20116;-64
2021/08/01 11:10:06;;;;;;;5.80;5.30;;;29.60;86.20;;;;;;5008834;28;20404;-64
2021/08/01 11:12:33;;;;;;;5.20;4.70;;;29.60;86.70;;;;;;5004645;28;20143;-64
2021/08/01 11:15:01;;;;;;;7.65;5.57;;;29.40;88.40;;;;;;5012032;28;20126;-64
2021/08/01 11:17:42;;;;;;;5.97;5.05;;;29.50;87.60;;;;;;5004768;28;20041;-64
2021/08/01 11:20:23;;;;;;;7.95;5.78;;;29.20;88.30;;;;;;4992189;28;20056;-64
2021/08/01 11:22:52;;;;;;;6.15;5.55;;;29.50;90.20;;;;;;5004558;28;20045;-65
2021/08/01 11:25:28;;;;;;;5.28;4.78;;;30.30;83.80;;;;;;4991793;28;20038;-64
2021/08/01 11:28:09;;;;;;;6.28;5.05;;;31.40;78.30;;;;;;5018830;28;20049;-65
2021/08/01 11:36:37;;;;;;;6.63;5.45;;;31.00;81.00;;;;;;4945951;28;20046;-63
2021/08/01 11:39:04;;;;;;;5.10;4.70;;;31.20;78.90;;;;;;5007636;28;20073;-62
2021/08/01 11:41:33;;;;;;;8.15;4.63;;;30.80;78.70;;;;;;5016241;28;20077;-64
2021/08/01 11:44:14;;;;;;;5.22;4.72;;;31.20;79.30;;;;;;5006490;28;20040;-65
2021/08/01 11:46:55;;;;;;;4.80;4.40;;;30.40;79.20;;;;;;4985659;28;20048;-64
2021/08/01 11:49:32;;;;;;;5.93;4.70;;;29.80;80.20;;;;;;5023585;28;20041;-64
2021/08/01 11:52:00;;;;;;;32.55;29.77;;;29.50;84.10;;;;;;5001986;28;20058;-64
2021/08/01 11:54:26;;;;;;;4.72;4.32;;;29.40;84.00;;;;;;5002836;28;20038;-65
2021/08/01 11:56:54;;;;;;;4.55;4.15;;;30.00;83.50;;;;;;4999941;28;20055;-65
2021/08/01 11:59:20;;;;;;;5.78;5.13;;;29.60;84.00;;;;;;5004233;28;20049;-64
2021/08/01 12:01:46;;;;;;;7.00;6.40;;;29.10;83.70;;;;;;5002486;28;20422;-64
2021/08/01 12:04:12;;;;;;;5.00;4.60;;;29.10;84.10;;;;;;5023342;28;20144;-64
2021/08/01 12:06:39;;;;;;;4.45;4.15;;;29.60;82.40;;;;;;4995178;28;20104;-63
2021/08/01 12:09:21;;;;;;;4.45;4.05;;;29.80;81.80;;;;;;5016976;28;20052;-63
2021/08/01 12:11:52;;;;;;;5.90;4.35;;;31.00;76.10;;;;;;4998040;28;20064;-65
2021/08/01 12:14:18;;;;;;;3.78;3.47;;;31.00;76.60;;;;;;5005053;28;20460;-64
2021/08/01 12:17:13;;;;;;;4.13;3.83;;;30.70;78.20;;;;;;5009175;28;20046;-64
2021/08/01 12:19:46;;;;;;;4.25;3.50;;;31.10;77.40;;;;;;4980459;28;22061;-64
2021/08/01 12:22:13;;;;;;;4.13;3.83;;;31.30;77.20;;;;;;5000200;28;20042;-64
2021/08/01 12:24:50;;;;;;;4.43;4.03;;;30.60;78.30;;;;;;5015386;28;20033;-63
2021/08/01 12:27:19;;;;;;;4.07;3.78;;;30.20;79.70;;;;;;5025006;28;20199;-64
2021/08/01 12:29:46;;;;;;;4.22;3.55;;;29.60;80.80;;;;;;5014737;28;20048;-64
2021/08/01 12:32:31;;;;;;;4.50;4.10;;;29.90;79.30;;;;;;5021712;28;20077;-64
2021/08/01 12:35:19;;;;;;;4.43;3.75;;;30.10;79.60;;;;;;5020995;28;20132;-64
2021/08/01 12:38:03;;;;;;;3.83;3.53;;;31.10;78.20;;;;;;4995247;28;20053;-64
2021/08/01 12:41:10;;;;;;;4.95;3.63;;;31.00;77.00;;;;;;4993355;28;20480;-65
2021/08/01 12:43:35;;;;;;;4.68;4.15;;;31.20;74.30;;;;;;4926062;28;20077;-64
2021/08/01 12:46:01;;;;;;;3.85;3.55;;;32.00;72.90;;;;;;4988282;28;20062;-64
2021/08/01 12:48:33;;;;;;;3.78;3.47;;;32.90;70.60;;;;;;4975164;28;20035;-64
2021/08/01 12:51:02;;;;;;;3.83;3.58;;;33.70;69.40;;;;;;4993124;28;20375;-65
2021/08/01 12:53:29;;;;;;;5.40;3.63;;;34.70;80.50;;;;;;4976044;28;20167;-65
2021/08/01 12:55:59;;;;;;;4.28;3.97;;;35.70;78.70;;;;;;4987941;28;20034;-64
2021/08/01 12:58:51;;;;;;;4.10;3.80;;;35.40;68.40;;;;;;4987790;28;20041;-64
2021/08/01 13:01:17;;;;;;;3.25;2.95;;;33.90;65.90;;;;;;4957547;28;20054;-65
2021/08/01 13:03:45;;;;;;;3.15;2.95;;;32.30;73.50;;;;;;4966297;28;20042;-64
2021/08/01 13:06:12;;;;;;;3.35;3.13;;;31.10;70.80;;;;;;4984247;28;20089;-64